Time;durP1;ratioP1;P1;durP2;ratioP2;P2;SDS_P1;SDS_P2;PMS_P1;PMS_P2;Temp;Humidity;BMP_temperature;BMP_pressure;BME280_temperature;BME280_humidity;BME280_pressure;Samples;Min_cycle;Max_cycle;Signal;HPM_P1;HPM_P2
2022/10/06 00:00:45;;;;;;;3.22;1.52;;;;;;;15.07;56.26;97197.47;1732840;82;21042;-85
2022/10/06 00:03:12;;;;;;;2.92;1.45;;;;;;;15.11;56.31;97184.31;1723326;82;21348;-85
2022/10/06 00:05:38;;;;;;;2.37;1.30;;;;;;;15.14;55.71;97186.07;1734150;82;21010;-85
2022/10/06 00:08:04;;;;;;;1.30;1.20;;;;;;;15.14;56.10;97186.57;1731683;82;21008;-85
2022/10/06 00:10:30;;;;;;;1.90;1.27;;;;;;;15.14;56.10;97186.57;1715248;82;20955;-85
2022/10/06 00:12:55;;;;;;;2.92;1.40;;;;;;;15.11;57.03;97190.85;1713488;82;20939;-85
2022/10/06 00:15:24;;;;;;;3.33;1.37;;;;;;;15.06;56.73;97193.23;1722169;82;21078;-85
2022/10/06 00:17:50;;;;;;;1.92;1.22;;;;;;;15.04;56.55;97196.55;1735293;82;21009;-85
2022/10/06 00:20:16;;;;;;;2.55;1.50;;;;;;;15.03;56.63;97209.33;1720791;82;20955;-85
2022/10/06 00:22:45;;;;;;;2.08;1.60;;;;;;;15.00;56.71;97211.33;1735531;82;20978;-84
2022/10/06 00:25:12;;;;;;;3.65;1.47;;;;;;;14.99;56.46;97204.47;1725318;82;21016;-85
2022/10/06 00:27:40;;;;;;;3.80;1.40;;;;;;;14.97;57.49;97207.78;1729441;82;20945;-85
2022/10/06 00:30:09;;;;;;;2.35;1.40;;;;;;;14.94;57.01;97204.21;1734845;82;20984;-85
2022/10/06 00:32:35;;;;;;;1.87;1.02;;;;;;;14.92;56.93;97207.52;1738726;82;21405;-85
2022/10/06 00:35:01;;;;;;;1.72;1.27;;;;;;;14.91;57.01;97210.33;1738616;82;20963;-85
2022/10/06 00:37:28;;;;;;;1.92;0.98;;;;;;;14.89;57.42;97208.40;1718175;82;21360;-85
2022/10/06 00:39:54;;;;;;;1.75;1.57;;;;;;;14.88;57.22;97213.33;1738687;82;20945;-85
2022/10/06 00:42:23;;;;;;;3.45;2.02;;;;;;;14.88;57.76;97206.28;1723817;82;21001;-86
2022/10/06 00:44:49;;;;;;;1.70;1.30;;;;;;;14.88;57.51;97211.52;1729736;82;21006;-85
2022/10/06 00:47:16;;;;;;;3.00;1.35;;;;;;;14.90;57.32;97192.52;1712244;82;21568;-85
2022/10/06 00:49:42;;;;;;;2.62;1.15;;;;;;;14.94;58.33;97187.20;1727643;82;20998;-85
2022/10/06 00:52:12;;;;;;;1.77;1.20;;;;;;;14.90;56.89;97199.55;1724304;82;21364;-86
2022/10/06 00:54:37;;;;;;;1.67;1.17;;;;;;;14.97;56.62;97195.20;1727279;82;21008;-86
2022/10/06 00:57:04;;;;;;;2.42;1.30;;;;;;;14.97;57.31;97202.55;1735373;82;20948;-86
2022/10/06 00:59:30;;;;;;;1.72;1.05;;;;;;;14.98;57.17;97208.09;1725769;82;20996;-85
2022/10/06 01:02:16;;;;;;;1.55;1.12;;;;;;;14.98;56.71;97199.44;1730224;82;21003;-85
2022/10/06 01:04:48;;;;;;;2.42;1.10;;;;;;;14.97;56.43;97197.81;1717434;82;20955;-85
2022/10/06 01:07:17;;;;;;;1.67;1.07;;;;;;;14.98;56.98;97204.17;1738428;82;20995;-85
2022/10/06 01:09:43;;;;;;;2.15;1.95;;;;;;;14.99;56.42;97220.17;1736048;82;21385;-85
2022/10/06 01:12:08;;;;;;;2.55;1.32;;;;;;;15.00;57.56;97221.80;1722590;82;20990;-85
2022/10/06 01:14:35;;;;;;;2.45;1.20;;;;;;;14.97;56.72;97216.94;1733205;82;20922;-85
2022/10/06 01:17:22;;;;;;;4.05;1.30;;;;;;;14.99;56.92;97228.03;1738458;82;21038;-85
2022/10/06 01:19:54;;;;;;;2.77;0.98;;;;;;;14.99;57.71;97229.84;1707946;82;21009;-85
2022/10/06 01:22:31;;;;;;;1.27;1.07;;;;;;;14.96;57.14;97242.77;1689922;82;20996;-85
2022/10/06 01:24:57;;;;;;;1.55;1.00;;;;;;;14.97;57.03;97238.38;1735222;82;20967;-85
2022/10/06 01:27:24;;;;;;;2.58;1.52;;;;;;;14.94;57.64;97255.73;1737948;82;20932;-85
2022/10/06 01:29:53;;;;;;;3.08;1.35;;;;;;;14.91;56.47;97255.62;1739259;82;20983;-85
2022/10/06 01:32:21;;;;;;;1.92;1.22;;;;;;;14.97;56.56;97243.61;1738832;82;21000;-85
2022/10/06 01:34:47;;;;;;;4.95;1.50;;;;;;;15.08;56.75;97267.14;1739476;82;20997;-85
2022/10/06 01:37:13;;;;;;;2.08;1.10;;;;;;;15.10;56.82;97275.61;1739509;82;20951;-85
2022/10/06 01:39:40;;;;;;;2.50;1.10;;;;;;;15.05;57.19;97268.83;1718326;82;20975;-85
2022/10/06 01:42:06;;;;;;;2.10;1.32;;;;;;;15.03;56.60;97269.02;1739310;82;20977;-85
2022/10/06 01:44:32;;;;;;;1.65;1.30;;;;;;;15.05;56.83;97271.45;1738552;82;21004;-85
2022/10/06 01:46:57;;;;;;;2.08;1.30;;;;;;;15.06;57.74;97261.28;1733610;82;21017;-85
2022/10/06 01:49:23;;;;;;;2.60;1.47;;;;;;;15.01;57.61;97269.21;1739042;82;20931;-85
2022/10/06 01:51:49;;;;;;;2.33;1.40;;;;;;;15.00;57.07;97255.01;1735685;82;20932;-85
2022/10/06 01:54:15;;;;;;;2.27;1.60;;;;;;;15.00;56.86;97253.20;1735611;82;20997;-85
2022/10/06 01:56:41;;;;;;;2.22;1.45;;;;;;;15.03;56.86;97250.70;1737897;82;20948;-84
2022/10/06 01:59:06;;;;;;;1.67;1.05;;;;;;;15.04;57.32;97249.70;1729169;82;21350;-85
2022/10/06 02:01:32;;;;;;;2.77;1.67;;;;;;;15.05;58.38;97260.48;1714115;82;20954;-85
2022/10/06 02:03:58;;;;;;;3.72;1.50;;;;;;;15.03;57.80;97259.86;1726236;82;20935;-84
2022/10/06 02:06:24;;;;;;;2.70;2.17;;;;;;;15.07;57.83;97255.86;1734123;82;21290;-85
2022/10/06 02:08:50;;;;;;;2.25;1.20;;;;;;;15.11;57.81;97257.59;1733583;82;20951;-86
2022/10/06 02:11:17;;;;;;;1.92;1.20;;;;;;;15.13;58.15;97264.28;1736221;82;21317;-85
2022/10/06 02:13:42;;;;;;;2.00;1.50;;;;;;;15.15;58.23;97251.81;1709837;82;20995;-85
2022/10/06 02:16:08;;;;;;;3.77;2.00;;;;;;;15.15;58.45;97262.78;1728441;82;21385;-85
2022/10/06 02:18:34;;;;;;;3.00;1.60;;;;;;;15.09;58.63;97251.75;1732735;82;21025;-85
2022/10/06 02:21:01;;;;;;;2.50;1.12;;;;;;;15.12;59.00;97260.52;1717980;82;21030;-84
2022/10/06 02:23:27;;;;;;;1.90;1.27;;;;;;;15.07;59.14;97258.98;1710040;82;21016;-85
2022/10/06 02:26:03;;;;;;;1.57;1.27;;;;;;;15.10;59.34;97262.52;1710200;82;21004;-85
2022/10/06 02:28:29;;;;;;;1.95;1.60;;;;;;;15.12;59.46;97262.64;1727768;82;20925;-85
2022/10/06 02:31:07;;;;;;;1.37;1.25;;;;;;;15.15;59.55;97265.41;1717564;82;21007;-85
2022/10/06 02:33:34;;;;;;;2.58;1.42;;;;;;;15.18;59.68;97262.41;1738069;82;20953;-85
2022/10/06 02:36:01;;;;;;;2.47;1.65;;;;;;;15.18;59.94;97270.26;1735142;82;21405;-85
2022/10/06 02:38:27;;;;;;;2.00;1.25;;;;;;;15.15;60.22;97263.59;1722185;82;20988;-85
2022/10/06 02:40:54;;;;;;;2.90;1.92;;;;;;;15.18;60.27;97257.98;1739024;82;21009;-85
2022/10/06 02:43:20;;;;;;;2.35;1.55;;;;;;;15.23;60.42;97265.25;1739366;82;21353;-85
2022/10/06 02:45:57;;;;;;;1.67;1.45;;;;;;;15.28;60.09;97259.75;1739392;82;20982;-84
2022/10/06 02:48:23;;;;;;;2.98;1.50;;;;;;;15.36;60.54;97267.98;1739160;82;21025;-85
2022/10/06 02:51:05;;;;;;;1.67;1.50;;;;;;;15.36;60.70;97272.41;1721564;82;20979;-85
2022/10/06 02:53:31;;;;;;;4.92;1.30;;;;;;;15.34;60.68;97268.67;1718291;82;20983;-85
2022/10/06 02:56:04;;;;;;;1.98;1.37;;;;;;;15.32;60.75;97266.75;1723784;82;20919;-85
2022/10/06 02:58:30;;;;;;;2.25;1.60;;;;;;;15.35;60.69;97269.48;1710067;82;20955;-85
2022/10/06 03:01:04;;;;;;;1.47;1.20;;;;;;;15.36;60.66;97265.37;1719295;82;21002;-85
2022/10/06 03:03:30;;;;;;;1.90;1.47;;;;;;;15.42;60.88;97263.28;1739166;82;20986;-85
2022/10/06 03:06:21;;;;;;;2.92;1.52;;;;;;;15.44;61.17;97270.45;1733990;82;21381;-85
2022/10/06 03:09:00;;;;;;;1.97;1.30;;;;;;;15.43;61.20;97267.52;1735606;82;21058;-85
2022/10/06 03:11:32;;;;;;;2.20;1.42;;;;;;;15.39;61.30;97275.95;1734811;82;21028;-85
2022/10/06 03:13:58;;;;;;;;;;;;;;;15.36;61.24;97271.91;1725756;82;21418;-85
2022/10/06 03:16:28;;;;;;;2.12;1.15;;;;;;;15.36;62.29;97275.84;1738675;82;20134;-85
2022/10/06 03:18:54;;;;;;;2.67;1.40;;;;;;;15.31;63.17;97272.99;1733117;82;21003;-85
2022/10/06 03:21:23;;;;;;;2.12;1.40;;;;;;;15.22;62.89;97278.84;1715319;82;20943;-86
2022/10/06 03:23:51;;;;;;;2.45;1.25;;;;;;;15.15;63.41;97283.23;1733511;83;21353;-85
2022/10/06 03:26:19;;;;;;;3.45;1.50;;;;;;;15.09;64.10;97276.61;1734982;82;20999;-85
2022/10/06 03:28:46;;;;;;;2.75;1.07;;;;;;;15.03;65.40;97267.71;1731796;82;20983;-85
2022/10/06 03:31:12;;;;;;;2.40;1.30;;;;;;;15.02;63.75;97283.11;1732524;82;20957;-85
2022/10/06 03:33:37;;;;;;;2.60;1.05;;;;;;;15.05;63.68;97284.03;1714467;82;20911;-85
2022/10/06 03:36:06;;;;;;;2.42;1.37;;;;;;;15.13;62.93;97280.46;1735277;82;20939;-86
2022/10/06 03:38:32;;;;;;;1.75;0.90;;;;;;;15.13;62.93;97280.46;1723146;82;20967;-86
2022/10/06 03:41:18;;;;;;;2.02;1.05;;;;;;;15.21;63.02;97284.27;1727468;82;20966;-85
2022/10/06 03:43:47;;;;;;;1.50;1.27;;;;;;;15.28;63.31;97279.39;1734552;83;20951;-85
2022/10/06 03:46:15;;;;;;;2.37;1.20;;;;;;;15.33;64.29;97272.30;1714085;82;20978;-86
2022/10/06 03:48:41;;;;;;;2.27;1.50;;;;;;;15.31;63.51;97277.73;1733683;82;21072;-85
2022/10/06 03:51:10;;;;;;;2.98;2.27;;;;;;;15.36;63.48;97281.08;1717453;82;21026;-86
2022/10/06 03:53:36;;;;;;;5.72;1.47;;;;;;;15.39;63.68;97275.45;1733575;82;20934;-86
2022/10/06 03:56:12;;;;;;;3.20;1.25;;;;;;;15.40;63.83;97271.83;1734161;82;20976;-85
2022/10/06 03:58:40;;;;;;;2.58;1.30;;;;;;;15.37;64.46;97261.75;1733092;82;21384;-86
2022/10/06 04:01:38;;;;;;;2.10;1.10;;;;;;;15.36;65.01;97264.56;1719276;82;21357;-86
2022/10/06 04:04:04;;;;;;;2.52;1.20;;;;;;;15.28;64.39;97268.11;1751218;81;20984;-85
2022/10/06 04:06:32;;;;;;;1.57;1.47;;;;;;;15.31;64.27;97271.68;1718301;82;21349;-86
2022/10/06 04:08:57;;;;;;;2.58;1.22;;;;;;;15.28;65.00;97277.27;1765780;81;21494;-85
2022/10/06 04:11:26;;;;;;;2.98;1.12;;;;;;;15.25;64.19;97275.84;1757291;81;21097;-85
2022/10/06 04:13:56;;;;;;;2.72;1.22;;;;;;;15.31;64.80;97276.92;1765920;80;20992;-85
2022/10/06 04:16:26;;;;;;;2.00;1.05;;;;;;;15.35;64.03;97287.31;1722934;81;20954;-85
2022/10/06 04:18:57;;;;;;;2.00;1.00;;;;;;;15.39;64.62;97281.19;1753650;81;20981;-86
2022/10/06 04:21:23;;;;;;;1.33;0.97;;;;;;;15.38;64.96;97281.69;1773327;81;20958;-86
2022/10/06 04:23:54;;;;;;;2.10;1.12;;;;;;;15.40;65.39;97290.66;1768378;79;21323;-85
2022/10/06 04:26:21;;;;;;;1.47;1.00;;;;;;;15.37;65.41;97283.20;1772137;81;21001;-86
2022/10/06 04:28:47;;;;;;;2.65;1.12;;;;;;;15.29;65.53;97282.81;1767909;80;21079;-86
2022/10/06 04:31:25;;;;;;;2.98;1.12;;;;;;;15.22;66.43;97287.20;1767130;80;21027;-86
2022/10/06 04:33:53;;;;;;;2.75;1.22;;;;;;;15.14;66.92;97289.47;1753923;80;20966;-86
2022/10/06 04:36:23;;;;;;;2.85;1.10;;;;;;;15.08;67.04;97284.16;1773420;80;20973;-86
2022/10/06 04:38:55;;;;;;;1.37;0.95;;;;;;;15.12;65.44;97289.31;1771766;80;21472;-86
2022/10/06 04:41:22;;;;;;;2.20;1.10;;;;;;;15.19;66.38;97281.04;1765830;80;21062;-85
2022/10/06 04:43:50;;;;;;;2.95;1.20;;;;;;;15.21;67.26;97289.01;1771270;79;21069;-85
2022/10/06 04:46:18;;;;;;;2.40;1.05;;;;;;;15.19;66.47;97287.58;1742421;81;22220;-86
2022/10/06 04:48:44;;;;;;;3.17;1.02;;;;;;;15.19;66.28;97281.04;1773860;79;20990;-86
2022/10/06 04:51:15;;;;;;;2.10;1.10;;;;;;;15.17;67.39;97294.81;1773120;81;21021;-86
2022/10/06 04:53:43;;;;;;;2.25;1.00;;;;;;;15.19;65.69;97283.66;1745414;81;20997;-85
2022/10/06 04:56:14;;;;;;;1.35;1.10;;;;;;;15.28;65.38;97296.41;1769233;80;21011;-86
2022/10/06 04:58:43;;;;;;;3.85;1.10;;;;;;;15.35;65.80;97301.72;1768735;79;21340;-86
2022/10/06 05:01:21;;;;;;;3.58;1.47;;;;;;;15.39;66.33;97291.66;1769268;80;20985;-86
2022/10/06 05:03:54;;;;;;;1.67;1.20;;;;;;;15.43;64.68;97293.71;1735684;81;21023;-85
2022/10/06 05:06:26;;;;;;;1.17;1.00;;;;;;;15.50;66.23;97294.59;1772714;80;21617;-86
2022/10/06 05:08:58;;;;;;;1.85;1.20;;;;;;;15.48;65.19;97293.97;1770591;80;20972;-85
2022/10/06 05:11:24;;;;;;;4.95;1.47;;;;;;;15.49;65.62;97291.66;1765648;80;21051;-86
2022/10/06 05:13:55;;;;;;;2.15;1.17;;;;;;;15.49;66.01;97294.28;1766081;81;21110;-85
2022/10/06 05:16:21;;;;;;;2.77;0.90;;;;;;;15.47;66.29;97292.86;1782960;80;21000;-86
2022/10/06 05:18:47;;;;;;;1.85;1.00;;;;;;;15.40;66.28;97303.27;1776774;80;20971;-86
2022/10/06 05:21:22;;;;;;;1.92;1.00;;;;;;;15.34;67.31;97300.59;1766003;80;20964;-86
2022/10/06 05:23:48;;;;;;;2.33;0.90;;;;;;;15.25;66.32;97303.84;1764279;80;20922;-85
2022/10/06 05:26:16;;;;;;;1.50;1.00;;;;;;;15.26;66.52;97304.14;1763845;80;20987;-85
2022/10/06 05:28:42;;;;;;;2.25;0.85;;;;;;;15.22;66.41;97308.95;1758766;80;21017;-85
2022/10/06 05:31:21;;;;;;;1.62;1.20;;;;;;;15.26;66.90;97302.84;1744938;81;21071;-85
2022/10/06 05:33:47;;;;;;;1.10;0.95;;;;;;;15.27;66.60;97311.00;1715911;82;21026;-86
2022/10/06 05:36:19;;;;;;;2.22;1.00;;;;;;;15.25;66.20;97315.12;1766040;80;20936;-85
2022/10/06 05:38:45;;;;;;;2.08;1.07;;;;;;;15.29;65.95;97322.09;1739282;81;20979;-86
2022/10/06 05:41:16;;;;;;;2.65;1.02;;;;;;;15.35;66.00;97323.98;1766017;80;21290;-86
2022/10/06 05:43:43;;;;;;;1.10;1.00;;;;;;;15.38;65.44;97335.38;1776004;80;20937;-85
2022/10/06 05:46:18;;;;;;;1.75;1.00;;;;;;;15.42;64.98;97341.04;1735232;81;20958;-85
2022/10/06 05:48:46;;;;;;;3.75;1.25;;;;;;;15.49;63.81;97340.61;1730083;81;21022;-86
2022/10/06 05:51:13;;;;;;;1.85;0.93;;;;;;;15.58;64.20;97345.51;1742344;81;21333;-86
2022/10/06 05:53:39;;;;;;;1.77;1.10;;;;;;;15.62;64.05;97351.23;1743759;81;20975;-86
2022/10/06 05:56:10;;;;;;;2.22;1.15;;;;;;;15.61;63.66;97354.83;1742268;81;21321;-86
2022/10/06 05:58:38;;;;;;;1.72;1.00;;;;;;;15.63;63.38;97365.95;1742280;81;20994;-86
2022/10/06 06:01:23;;;;;;;3.30;1.50;;;;;;;15.63;63.50;97367.77;1765465;80;20981;-86
2022/10/06 06:03:51;;;;;;;0.93;0.80;;;;;;;15.61;63.39;97368.73;1730251;82;20999;-85
2022/10/06 06:06:22;;;;;;;1.47;0.95;;;;;;;15.60;65.86;97371.55;1720600;83;21019;-86
2022/10/06 06:08:58;;;;;;;2.92;1.40;;;;;;;15.49;64.07;97370.23;1728614;82;22040;-85
2022/10/06 06:11:26;;;;;;;1.75;1.22;;;;;;;15.47;64.62;97376.16;1719176;82;21307;-86
2022/10/06 06:14:00;;;;;;;4.85;1.40;;;;;;;15.48;64.07;97375.16;1721982;83;21411;-85
2022/10/06 06:16:27;;;;;;;1.75;1.37;;;;;;;15.49;65.77;97371.55;1725688;82;21023;-85
2022/10/06 06:18:53;;;;;;;1.35;1.07;;;;;;;15.47;66.48;97379.28;1721624;83;20940;-85
2022/10/06 06:21:20;;;;;;;2.35;0.90;;;;;;;15.40;65.51;97382.33;1697566;82;21034;-85
2022/10/06 06:23:46;;;;;;;2.12;1.20;;;;;;;15.38;66.89;97377.28;1709548;83;20959;-85
2022/10/06 06:26:16;;;;;;;4.65;1.40;;;;;;;15.35;67.03;97391.25;1728684;83;21048;-86
2022/10/06 06:28:45;;;;;;;1.95;1.25;;;;;;;15.30;66.51;97399.17;1728817;82;21003;-86
2022/10/06 06:31:13;;;;;;;3.42;1.20;;;;;;;15.32;66.18;97405.53;1722820;82;20939;-85
2022/10/06 06:33:40;;;;;;;1.85;1.10;;;;;;;15.33;67.86;97418.94;1725734;82;21023;-86
2022/10/06 06:36:26;;;;;;;3.15;1.35;;;;;;;15.30;67.47;97424.05;1722402;83;21053;-85
2022/10/06 06:38:55;;;;;;;2.62;1.17;;;;;;;15.33;68.12;97420.24;1723491;83;20959;-86
2022/10/06 06:41:24;;;;;;;1.67;1.20;;;;;;;15.35;68.47;97430.53;1719638;82;20979;-85
2022/10/06 06:43:51;;;;;;;3.27;1.40;;;;;;;15.36;68.56;97447.36;1722517;82;21009;-86
2022/10/06 06:46:19;;;;;;;2.20;1.32;;;;;;;15.39;67.93;97450.91;1715992;82;21014;-86
2022/10/06 06:48:46;;;;;;;2.42;1.70;;;;;;;15.44;67.50;97451.16;1715966;83;21002;-86
2022/10/06 06:51:12;;;;;;;3.72;2.05;;;;;;;15.50;67.59;97456.17;1725557;83;21034;-86
2022/10/06 06:53:39;;;;;;;2.27;1.52;;;;;;;15.55;67.41;97451.98;1728827;83;20931;-86
2022/10/06 06:56:07;;;;;;;2.72;1.45;;;;;;;15.61;67.32;97447.33;1728956;82;21362;-86
2022/10/06 06:58:34;;;;;;;2.12;1.40;;;;;;;15.66;67.39;97455.14;1728679;82;21043;-85
2022/10/06 07:01:10;;;;;;;2.80;1.60;;;;;;;15.69;67.44;97450.34;1726772;82;21420;-85
2022/10/06 07:03:38;;;;;;;5.97;1.80;;;;;;;15.73;67.55;97450.27;1749164;80;21038;-86
2022/10/06 07:06:08;;;;;;;2.35;1.52;;;;;;;15.77;67.82;97446.27;1766337;80;21013;-86
2022/10/06 07:08:37;;;;;;;2.00;1.75;;;;;;;15.79;67.84;97462.64;1775546;80;21383;-85
2022/10/06 07:11:19;;;;;;;4.05;2.10;;;;;;;15.81;67.51;97457.20;1802430;79;21380;-86
2022/10/06 07:13:45;;;;;;;2.40;2.20;;;;;;;15.86;67.56;97464.80;1784946;79;20972;-85
2022/10/06 07:27:10;;;;;;;2.22;2.00;;;;;;;15.98;68.08;97477.41;1755514;80;21488;-85
2022/10/06 07:29:35;;;;;;;2.80;1.82;;;;;;;15.99;68.44;97481.65;1776102;80;21051;-85
2022/10/06 07:32:01;;;;;;;3.27;1.80;;;;;;;16.00;68.54;97479.34;1782795;79;20935;-86
2022/10/06 07:34:29;;;;;;;5.42;2.30;;;;;;;16.02;69.03;97478.64;1786473;79;21022;-86
2022/10/06 07:36:58;;;;;;;5.33;2.80;;;;;;;16.03;68.95;97482.89;1780872;79;21082;-86
2022/10/06 07:39:24;;;;;;;3.10;2.02;;;;;;;16.06;69.01;97491.17;1776719;79;21020;-86
2022/10/06 07:41:50;;;;;;;4.95;2.37;;;;;;;16.14;68.89;97496.30;1792357;79;21385;-85
2022/10/06 07:44:15;;;;;;;3.70;2.20;;;;;;;16.21;68.80;97502.39;1749645;81;21269;-85
2022/10/06 07:46:42;;;;;;;4.42;2.75;;;;;;;16.29;68.56;97501.97;1776134;80;21297;-85
2022/10/06 07:49:09;;;;;;;4.10;2.52;;;;;;;16.36;68.62;97506.24;1776171;80;20989;-86
2022/10/06 07:51:34;;;;;;;4.33;3.40;;;;;;;16.42;68.59;97513.84;1775548;80;20943;-85
2022/10/06 07:54:01;;;;;;;4.53;3.08;;;;;;;16.47;67.99;97520.16;1775450;81;20926;-86
2022/10/06 07:56:26;;;;;;;6.92;4.95;;;;;;;16.51;67.89;97525.83;1776264;80;21010;-86
2022/10/06 07:58:52;;;;;;;7.85;4.40;;;;;;;16.55;68.08;97520.50;1776256;80;21285;-85
2022/10/06 08:01:19;;;;;;;5.55;3.67;;;;;;;16.59;68.17;97525.66;1776479;80;20923;-85
2022/10/06 08:03:51;;;;;;;4.87;3.30;;;;;;;16.66;68.28;97541.47;1766932;80;21055;-86
2022/10/06 08:06:16;;;;;;;4.80;3.00;;;;;;;16.70;67.79;97535.67;1747351;81;20949;-85
2022/10/06 08:08:42;;;;;;;5.00;3.33;;;;;;;16.72;67.72;97542.84;1742649;81;20959;-85
2022/10/06 08:11:09;;;;;;;5.45;4.00;;;;;;;16.69;67.42;97539.30;1738750;81;20996;-86
2022/10/06 08:13:37;;;;;;;4.17;2.70;;;;;;;16.70;67.73;97542.73;1737862;82;20997;-86
2022/10/06 08:16:09;;;;;;;4.87;3.00;;;;;;;16.73;67.72;97544.47;1737845;82;20920;-86
2022/10/06 08:18:36;;;;;;;4.35;2.75;;;;;;;16.73;67.81;97548.41;1735585;81;20982;-85
2022/10/06 08:21:16;;;;;;;5.78;4.08;;;;;;;16.79;68.02;97554.72;1739590;81;20923;-86
2022/10/06 08:23:42;;;;;;;6.25;3.52;;;;;;;16.84;68.89;97562.82;1737697;81;21018;-86
2022/10/06 08:26:09;;;;;;;5.75;3.30;;;;;;;16.87;67.90;97564.25;1730882;81;20932;-86
2022/10/06 08:28:35;;;;;;;5.85;3.00;;;;;;;16.88;67.88;97569.30;1739699;81;20986;-86
2022/10/06 08:31:10;;;;;;;5.60;3.08;;;;;;;16.96;68.01;97570.48;1735905;81;21051;-85
2022/10/06 08:33:37;;;;;;;6.90;3.58;;;;;;;16.99;67.92;97574.02;1739308;82;21082;-85
2022/10/06 08:36:07;;;;;;;5.60;3.40;;;;;;;16.97;67.89;97584.41;1739742;81;21419;-86
2022/10/06 08:38:35;;;;;;;5.35;3.35;;;;;;;16.94;67.75;97587.43;1745523;81;20980;-86
2022/10/06 08:41:03;;;;;;;5.47;3.47;;;;;;;16.89;68.27;97580.11;1745327;81;20985;-86
2022/10/06 08:43:29;;;;;;;4.80;2.55;;;;;;;16.87;68.36;97580.00;1744430;81;21032;-86
2022/10/06 08:45:59;;;;;;;6.78;2.85;;;;;;;16.86;68.39;97582.31;1748585;81;20952;-86
2022/10/06 08:48:27;;;;;;;6.85;3.12;;;;;;;16.84;68.43;97591.69;1751700;81;20978;-85
2022/10/06 08:51:30;;;;;;;7.00;3.45;;;;;;;16.82;68.31;97586.33;1739696;81;20949;-86
2022/10/06 08:54:24;;;;;;;5.30;3.80;;;;;;;16.80;68.51;97587.84;1738297;81;20961;-86
2022/10/06 08:57:04;;;;;;;6.53;3.40;;;;;;;16.76;68.58;97587.92;1741130;80;20996;-86
2022/10/06 08:59:36;;;;;;;7.03;4.05;;;;;;;16.73;68.74;97592.21;1732873;82;20995;-86
2022/10/06 09:02:05;;;;;;;;;;;;;;;16.70;69.04;97590.78;1751213;81;21027;-86
2022/10/06 09:04:30;;;;;;;10.13;4.65;;;;;;;16.69;68.56;97599.66;1744022;81;20080;-86
2022/10/06 09:07:07;;;;;;;9.58;5.67;;;;;;;16.67;68.81;97599.05;1766998;79;20956;-86
2022/10/06 09:09:44;;;;;;;8.85;4.37;;;;;;;16.69;69.18;97598.84;1769432;80;21357;-86
2022/10/06 09:12:22;;;;;;;8.58;5.22;;;;;;;16.68;69.07;97602.48;1770844;79;21006;-86
2022/10/06 09:14:53;;;;;;;10.58;5.53;;;;;;;16.68;69.09;97605.91;1766264;80;21991;-85
2022/10/06 09:17:26;;;;;;;5.37;4.17;;;;;;;16.70;69.38;97607.84;1771276;79;20955;-86
2022/10/06 09:20:19;;;;;;;6.35;3.65;;;;;;;16.73;69.83;97606.64;1770667;80;21333;-85
2022/10/06 09:22:46;;;;;;;6.05;2.85;;;;;;;16.78;70.52;97606.41;1750798;80;21397;-86
2022/10/06 09:25:19;;;;;;;5.78;3.60;;;;;;;16.84;69.95;97610.57;1764503;80;20933;-86
2022/10/06 09:27:53;;;;;;;7.15;3.02;;;;;;;16.89;70.05;97610.30;1767648;80;20951;-85
2022/10/06 09:30:16;;;;;;;5.70;3.20;;;;;;;16.90;72.19;97613.73;1767703;80;20998;-86
2022/10/06 09:32:47;;;;;;;6.83;3.00;;;;;;;16.88;71.33;97613.92;1772994;80;21010;-86
2022/10/06 09:35:17;;;;;;;8.85;3.00;;;;;;;16.91;70.91;97614.84;1783089;80;20963;-84
2022/10/06 09:37:57;;;;;;;4.12;2.70;;;;;;;16.95;71.17;97626.61;1773968;79;21025;-83
2022/10/06 09:40:48;;;;;;;5.83;2.85;;;;;;;16.97;70.68;97623.80;1769859;81;21030;-86
2022/10/06 09:43:24;;;;;;;4.23;2.90;;;;;;;17.00;70.95;97627.34;1747528;79;21043;-86
2022/10/06 09:45:53;;;;;;;4.67;2.80;;;;;;;16.99;71.05;97625.22;1769113;80;21333;-86
2022/10/06 09:48:24;;;;;;;4.58;2.50;;;;;;;16.98;70.66;97629.36;1766960;79;21341;-86
2022/10/06 09:51:16;;;;;;;4.80;2.60;;;;;;;16.94;72.22;97630.25;1772661;79;20962;-86
2022/10/06 09:53:43;;;;;;;4.72;2.52;;;;;;;16.89;71.23;97629.17;1774566;80;20944;-85
2022/10/06 09:56:20;;;;;;;6.53;2.80;;;;;;;16.83;70.56;97637.83;1772926;79;21097;-86
2022/10/06 09:58:57;;;;;;;5.35;2.40;;;;;;;16.79;70.50;97631.65;1751861;80;20974;-85
2022/10/06 10:01:28;;;;;;;5.33;2.75;;;;;;;16.83;70.50;97637.32;1782123;79;21351;-86
2022/10/06 10:04:00;;;;;;;3.60;2.60;;;;;;;16.91;70.52;97636.36;1768677;80;21075;-85
2022/10/06 10:06:33;;;;;;;5.50;2.60;;;;;;;17.02;70.68;97634.02;1760541;80;21039;-85
2022/10/06 10:09:26;;;;;;;5.08;2.55;;;;;;;17.16;71.00;97638.87;1763943;80;21040;-85
2022/10/06 10:12:29;;;;;;;4.40;2.70;;;;;;;17.32;70.79;97644.31;1763659;80;20988;-85
2022/10/06 10:15:03;;;;;;;4.92;2.80;;;;;;;17.46;70.38;97642.58;1775434;80;20910;-84
2022/10/06 10:17:37;;;;;;;4.85;3.08;;;;;;;17.58;69.94;97647.59;1739425;81;20962;-85
2022/10/06 10:20:09;;;;;;;5.53;3.12;;;;;;;17.67;69.53;97645.91;1764576;80;20993;-86
2022/10/06 10:22:39;;;;;;;4.20;2.75;;;;;;;17.77;69.04;97646.09;1731141;81;20988;-85
2022/10/06 10:25:13;;;;;;;6.72;2.95;;;;;;;17.88;69.43;97648.95;1733931;81;21035;-86
2022/10/06 10:28:07;;;;;;;5.40;2.90;;;;;;;17.98;69.64;97644.64;1742523;81;21414;-85
2022/10/06 10:30:44;;;;;;;4.22;3.60;;;;;;;18.06;68.57;97649.73;1740600;81;21346;-85
2022/10/06 10:33:27;;;;;;;4.85;3.25;;;;;;;18.14;68.54;97644.28;1763233;80;21048;-86
2022/10/06 10:35:54;;;;;;;7.17;2.70;;;;;;;18.19;68.40;97643.17;1767991;80;20946;-85
2022/10/06 10:38:21;;;;;;;4.42;3.12;;;;;;;18.25;68.63;97645.53;1761971;80;21039;-86
2022/10/06 10:41:03;;;;;;;7.67;2.90;;;;;;;18.33;68.53;97637.94;1739290;81;21037;-86
2022/10/06 10:43:33;;;;;;;4.53;2.70;;;;;;;18.39;68.39;97639.80;1765327;80;20996;-85
2022/10/06 10:46:22;;;;;;;6.25;2.95;;;;;;;18.46;68.68;97648.49;1756117;81;21453;-85
2022/10/06 10:49:00;;;;;;;3.95;2.92;;;;;;;18.50;67.66;97646.57;1763391;80;20985;-85
2022/10/06 10:51:39;;;;;;;3.55;2.90;;;;;;;18.55;67.83;97649.43;1745361;81;21022;-85
2022/10/06 10:54:13;;;;;;;3.15;2.40;;;;;;;18.61;68.20;97649.12;1745959;81;21333;-85
2022/10/06 10:56:39;;;;;;;6.08;3.85;;;;;;;18.68;68.15;97653.90;1747201;81;20974;-85
2022/10/06 10:59:19;;;;;;;5.87;3.60;;;;;;;18.68;67.99;97652.59;1747097;82;20950;-85
2022/10/06 11:01:51;;;;;;;6.10;3.45;;;;;;;18.73;67.75;97648.86;1765784;81;20988;-86
2022/10/06 11:04:16;;;;;;;5.33;3.27;;;;;;;18.81;67.60;97649.96;1741506;82;21575;-85
2022/10/06 11:07:25;;;;;;;5.95;3.85;;;;;;;18.90;67.81;97650.58;1776347;79;21072;-85
2022/10/06 11:10:14;;;;;;;6.58;2.62;;;;;;;18.99;67.60;97653.30;1746881;81;21401;-86
2022/10/06 11:13:15;;;;;;;3.95;2.95;;;;;;;19.09;67.39;97647.11;1725109;82;20999;-86
2022/10/06 11:16:05;;;;;;;4.17;2.67;;;;;;;19.17;67.78;97646.88;1720637;81;21046;-85
2022/10/06 11:18:56;;;;;;;4.37;2.70;;;;;;;19.27;67.33;97644.34;1760997;80;20957;-86
2022/10/06 11:21:49;;;;;;;5.22;2.50;;;;;;;19.34;66.88;97644.63;1760529;80;20979;-86
2022/10/06 11:24:27;;;;;;;3.33;2.05;;;;;;;19.38;66.61;97648.48;1765780;81;20975;-86
2022/10/06 11:27:41;;;;;;;6.00;2.70;;;;;;;19.49;66.41;97649.66;1719374;83;20984;-86
2022/10/06 11:30:18;;;;;;;3.02;2.08;;;;;;;19.61;66.34;97650.67;1769136;80;21007;-86
2022/10/06 11:33:19;;;;;;;3.00;2.00;;;;;;;19.57;65.48;97649.48;1772707;80;21362;-86
2022/10/06 11:35:44;;;;;;;3.98;2.27;;;;;;;19.59;65.79;97649.27;1773077;80;21054;-86
2022/10/06 11:38:28;;;;;;;4.47;1.92;;;;;;;19.62;66.16;97645.70;1772977;80;21028;-86
2022/10/06 11:41:14;;;;;;;3.72;1.85;;;;;;;19.66;66.46;97645.58;1780006;80;20935;-82
2022/10/06 11:44:03;;;;;;;2.58;1.62;;;;;;;19.71;66.40;97647.09;1772610;79;22088;-84
2022/10/06 11:46:45;;;;;;;2.65;1.95;;;;;;;19.71;65.02;97645.78;1772699;80;21078;-84
2022/10/06 11:49:38;;;;;;;3.95;1.65;;;;;;;19.71;64.81;97648.93;1769316;80;20997;-84
2022/10/06 11:52:10;;;;;;;;;;;;;;;19.73;65.10;97644.25;1741718;81;21015;-83
2022/10/06 11:54:52;;;;;;;2.20;1.75;;;;;;;19.76;64.84;97652.55;1768657;79;20149;-84
2022/10/06 11:57:26;;;;;;;5.20;2.02;;;;;;;19.77;64.67;97658.12;1769604;80;20944;-83
2022/10/06 11:59:54;;;;;;;3.67;1.90;;;;;;;19.77;65.15;97657.31;1760395;80;21372;-84
2022/10/06 12:02:35;;;;;;;5.62;2.35;;;;;;;19.78;64.73;97652.34;1771895;80;21341;-84
2022/10/06 12:05:19;;;;;;;2.58;1.70;;;;;;;19.79;65.97;97657.40;1769796;80;21007;-83